sensor_id;sensor_type;location;lat;lon;timestamp;temperature;humidity
17986;DHT22;9118;48.122;11.546;2024-03-22T00:01:01;8.70;99.90
17986;DHT22;9118;48.122;11.546;2024-03-22T00:03:28;8.50;99.90
17986;DHT22;9118;48.122;11.546;2024-03-22T00:05:55;8.60;99.90
17986;DHT22;9118;48.122;11.546;2024-03-22T00:08:22;8.60;99.90
17986;DHT22;9118;48.122;11.546;2024-03-22T00:10:48;8.70;99.90
17986;DHT22;9118;48.122;11.546;2024-03-22T00:13:14;8.50;99.90
17986;DHT22;9118;48.122;11.546;2024-03-22T00:15:40;8.50;99.90
17986;DHT22;9118;48.122;11.546;2024-03-22T00:18:11;8.60;99.90
17986;DHT22;9118;48.122;11.546;2024-03-22T00:20:37;8.50;99.90
17986;DHT22;9118;48.122;11.546;2024-03-22T00:23:04;8.50;99.90
17986;DHT22;9118;48.122;11.546;2024-03-22T00:25:30;8.50;99.90
17986;DHT22;9118;48.122;11.546;2024-03-22T00:27:57;8.00;99.90
17986;DHT22;9118;48.122;11.546;2024-03-22T00:30:23;8.50;99.90
17986;DHT22;9118;48.122;11.546;2024-03-22T00:32:50;7.90;99.90
17986;DHT22;9118;48.122;11.546;2024-03-22T00:35:17;8.60;99.90
17986;DHT22;9118;48.122;11.546;2024-03-22T00:37:45;9.00;99.90
17986;DHT22;9118;48.122;11.546;2024-03-22T00:40:11;8.50;99.90
17986;DHT22;9118;48.122;11.546;2024-03-22T00:42:39;8.60;99.90
17986;DHT22;9118;48.122;11.546;2024-03-22T00:45:05;8.50;99.90
17986;DHT22;9118;48.122;11.546;2024-03-22T00:47:32;8.60;99.90
17986;DHT22;9118;48.122;11.546;2024-03-22T00:49:58;8.50;99.90
17986;DHT22;9118;48.122;11.546;2024-03-22T00:52:28;8.50;99.90
17986;DHT22;9118;48.122;11.546;2024-03-22T00:54:54;8.60;99.90
17986;DHT22;9118;48.122;11.546;2024-03-22T00:57:21;8.60;99.90
17986;DHT22;9118;48.122;11.546;2024-03-22T00:59:47;8.50;99.90
17986;DHT22;9118;48.122;11.546;2024-03-22T01:02:15;8.50;99.90
17986;DHT22;9118;48.122;11.546;2024-03-22T01:04:41;8.30;99.90
17986;DHT22;9118;48.122;11.546;2024-03-22T01:07:08;8.40;99.90
17986;DHT22;9118;48.122;11.546;2024-03-22T01:09:35;8.50;99.90
17986;DHT22;9118;48.122;11.546;2024-03-22T01:12:02;8.40;99.90
17986;DHT22;9118;48.122;11.546;2024-03-22T01:14:28;8.40;99.90
17986;DHT22;9118;48.122;11.546;2024-03-22T01:16:55;8.30;99.90
17986;DHT22;9118;48.122;11.546;2024-03-22T01:19:21;8.30;99.90
17986;DHT22;9118;48.122;11.546;2024-03-22T01:21:49;8.40;99.90
17986;DHT22;9118;48.122;11.546;2024-03-22T01:24:15;8.40;99.90
17986;DHT22;9118;48.122;11.546;2024-03-22T01:26:43;8.30;99.90
17986;DHT22;9118;48.122;11.546;2024-03-22T01:29:09;8.30;99.90
17986;DHT22;9118;48.122;11.546;2024-03-22T01:31:38;8.30;99.90
17986;DHT22;9118;48.122;11.546;2024-03-22T01:34:04;8.90;99.90
17986;DHT22;9118;48.122;11.546;2024-03-22T01:36:31;8.30;99.90
17986;DHT22;9118;48.122;11.546;2024-03-22T01:38:57;8.00;99.90
17986;DHT22;9118;48.122;11.546;2024-03-22T01:41:24;8.30;99.90
17986;DHT22;9118;48.122;11.546;2024-03-22T01:43:51;8.30;99.90
17986;DHT22;9118;48.122;11.546;2024-03-22T01:46:18;8.50;99.90
17986;DHT22;9118;48.122;11.546;2024-03-22T01:48:44;8.60;99.90
17986;DHT22;9118;48.122;11.546;2024-03-22T01:51:11;8.30;99.90
17986;DHT22;9118;48.122;11.546;2024-03-22T01:53:38;8.10;99.90
17986;DHT22;9118;48.122;11.546;2024-03-22T01:56:05;8.30;99.90
17986;DHT22;9118;48.122;11.546;2024-03-22T01:58:33;8.50;99.90
17986;DHT22;9118;48.122;11.546;2024-03-22T02:01:01;8.40;99.90
17986;DHT22;9118;48.122;11.546;2024-03-22T02:03:27;8.20;99.90
17986;DHT22;9118;48.122;11.546;2024-03-22T02:05:55;8.10;99.90
17986;DHT22;9118;48.122;11.546;2024-03-22T02:08:21;8.20;99.90
17986;DHT22;9118;48.122;11.546;2024-03-22T02:10:48;8.20;99.90
17986;DHT22;9118;48.122;11.546;2024-03-22T02:13:14;8.10;99.90
17986;DHT22;9118;48.122;11.546;2024-03-22T02:15:42;8.20;99.90
17986;DHT22;9118;48.122;11.546;2024-03-22T02:18:09;8.00;99.90
17986;DHT22;9118;48.122;11.546;2024-03-22T02:20:36;8.00;99.90
17986;DHT22;9118;48.122;11.546;2024-03-22T02:23:02;8.00;99.90
17986;DHT22;9118;48.122;11.546;2024-03-22T02:25:30;7.90;99.90
17986;DHT22;9118;48.122;11.546;2024-03-22T02:27:56;7.90;99.90
17986;DHT22;9118;48.122;11.546;2024-03-22T02:30:29;7.90;99.90
17986;DHT22;9118;48.122;11.546;2024-03-22T02:32:57;7.70;99.90
17986;DHT22;9118;48.122;11.546;2024-03-22T02:35:24;8.00;99.90
17986;DHT22;9118;48.122;11.546;2024-03-22T02:37:50;7.90;99.90
17986;DHT22;9118;48.122;11.546;2024-03-22T02:40:16;8.00;99.90
17986;DHT22;9118;48.122;11.546;2024-03-22T02:42:44;7.80;99.90
17986;DHT22;9118;48.122;11.546;2024-03-22T02:45:10;8.60;99.90
17986;DHT22;9118;48.122;11.546;2024-03-22T02:47:37;7.80;99.90
17986;DHT22;9118;48.122;11.546;2024-03-22T02:50:03;7.80;99.90
17986;DHT22;9118;48.122;11.546;2024-03-22T02:52:30;8.20;99.90
17986;DHT22;9118;48.122;11.546;2024-03-22T02:54:56;8.10;99.90
17986;DHT22;9118;48.122;11.546;2024-03-22T02:57:23;7.90;99.90
17986;DHT22;9118;48.122;11.546;2024-03-22T02:59:50;7.70;99.90
17986;DHT22;9118;48.122;11.546;2024-03-22T03:02:17;7.90;99.90
17986;DHT22;9118;48.122;11.546;2024-03-22T03:04:43;7.80;99.90
17986;DHT22;9118;48.122;11.546;2024-03-22T03:07:10;7.80;99.90
17986;DHT22;9118;48.122;11.546;2024-03-22T03:09:36;7.70;99.90
17986;DHT22;9118;48.122;11.546;2024-03-22T03:12:03;7.80;99.90
17986;DHT22;9118;48.122;11.546;2024-03-22T03:14:29;7.70;99.90
17986;DHT22;9118;48.122;11.546;2024-03-22T03:16:58;7.70;99.90
17986;DHT22;9118;48.122;11.546;2024-03-22T03:19:23;7.70;99.90
17986;DHT22;9118;48.122;11.546;2024-03-22T03:21:50;7.70;99.90
17986;DHT22;9118;48.122;11.546;2024-03-22T03:24:16;8.20;99.90
17986;DHT22;9118;48.122;11.546;2024-03-22T03:26:43;7.70;99.90
17986;DHT22;9118;48.122;11.546;2024-03-22T03:29:09;7.70;99.90
17986;DHT22;9118;48.122;11.546;2024-03-22T03:31:36;7.60;99.90
17986;DHT22;9118;48.122;11.546;2024-03-22T03:34:03;7.60;99.90
17986;DHT22;9118;48.122;11.546;2024-03-22T03:36:30;7.70;99.90
17986;DHT22;9118;48.122;11.546;2024-03-22T03:38:57;7.90;99.90
17986;DHT22;9118;48.122;11.546;2024-03-22T03:41:24;7.60;99.90
17986;DHT22;9118;48.122;11.546;2024-03-22T03:43:49;7.50;99.90
17986;DHT22;9118;48.122;11.546;2024-03-22T03:46:16;7.60;99.90
17986;DHT22;9118;48.122;11.546;2024-03-22T03:48:42;7.60;99.90
17986;DHT22;9118;48.122;11.546;2024-03-22T03:51:12;7.50;99.90
17986;DHT22;9118;48.122;11.546;2024-03-22T03:53:37;8.50;99.90
17986;DHT22;9118;48.122;11.546;2024-03-22T03:56:04;8.00;99.90
17986;DHT22;9118;48.122;11.546;2024-03-22T03:58:30;7.40;99.90
17986;DHT22;9118;48.122;11.546;2024-03-22T04:00:57;7.60;99.90
17986;DHT22;9118;48.122;11.546;2024-03-22T04:03:23;7.60;99.90
17986;DHT22;9118;48.122;11.546;2024-03-22T04:05:55;7.50;99.90
17986;DHT22;9118;48.122;11.546;2024-03-22T04:08:23;7.50;99.90
17986;DHT22;9118;48.122;11.546;2024-03-22T04:10:51;7.40;99.90
17986;DHT22;9118;48.122;11.546;2024-03-22T04:13:17;7.40;99.90
17986;DHT22;9118;48.122;11.546;2024-03-22T04:15:44;7.50;99.90
17986;DHT22;9118;48.122;11.546;2024-03-22T04:18:10;7.40;99.90
17986;DHT22;9118;48.122;11.546;2024-03-22T04:20:37;7.40;99.90
17986;DHT22;9118;48.122;11.546;2024-03-22T04:23:03;7.40;99.90
17986;DHT22;9118;48.122;11.546;2024-03-22T04:25:31;7.30;99.90
17986;DHT22;9118;48.122;11.546;2024-03-22T04:27:57;7.20;99.90
17986;DHT22;9118;48.122;11.546;2024-03-22T04:30:24;7.50;99.90
17986;DHT22;9118;48.122;11.546;2024-03-22T04:32:50;7.40;99.90
17986;DHT22;9118;48.122;11.546;2024-03-22T04:35:17;7.30;99.90
17986;DHT22;9118;48.122;11.546;2024-03-22T04:37:44;7.40;99.90
17986;DHT22;9118;48.122;11.546;2024-03-22T04:40:11;7.40;99.90
17986;DHT22;9118;48.122;11.546;2024-03-22T04:42:40;7.40;99.90
17986;DHT22;9118;48.122;11.546;2024-03-22T04:45:06;7.40;99.90
17986;DHT22;9118;48.122;11.546;2024-03-22T04:47:33;7.40;99.90
17986;DHT22;9118;48.122;11.546;2024-03-22T04:49:59;7.30;99.90
17986;DHT22;9118;48.122;11.546;2024-03-22T04:52:26;7.40;99.90
17986;DHT22;9118;48.122;11.546;2024-03-22T04:54:52;7.70;99.90
17986;DHT22;9118;48.122;11.546;2024-03-22T04:57:19;7.40;99.90
17986;DHT22;9118;48.122;11.546;2024-03-22T04:59:47;7.50;99.90
17986;DHT22;9118;48.122;11.546;2024-03-22T05:02:13;7.50;99.90
17986;DHT22;9118;48.122;11.546;2024-03-22T05:04:39;7.50;99.90
17986;DHT22;9118;48.122;11.546;2024-03-22T05:07:06;7.70;99.90
17986;DHT22;9118;48.122;11.546;2024-03-22T05:09:32;7.60;99.90
17986;DHT22;9118;48.122;11.546;2024-03-22T05:11:59;7.60;99.90
17986;DHT22;9118;48.122;11.546;2024-03-22T05:14:25;7.80;99.90
17986;DHT22;9118;48.122;11.546;2024-03-22T05:16:53;7.80;99.90
17986;DHT22;9118;48.122;11.546;2024-03-22T05:19:19;7.90;99.90
17986;DHT22;9118;48.122;11.546;2024-03-22T05:21:46;8.00;99.90
17986;DHT22;9118;48.122;11.546;2024-03-22T05:24:12;7.80;99.90
17986;DHT22;9118;48.122;11.546;2024-03-22T05:26:39;7.90;99.90
17986;DHT22;9118;48.122;11.546;2024-03-22T05:29:05;8.10;99.90
17986;DHT22;9118;48.122;11.546;2024-03-22T05:31:32;8.20;99.90
17986;DHT22;9118;48.122;11.546;2024-03-22T05:34:12;8.30;99.90
17986;DHT22;9118;48.122;11.546;2024-03-22T05:36:40;8.30;99.90
17986;DHT22;9118;48.122;11.546;2024-03-22T05:39:05;8.40;99.90
17986;DHT22;9118;48.122;11.546;2024-03-22T05:41:33;8.40;99.90
17986;DHT22;9118;48.122;11.546;2024-03-22T05:43:59;8.50;99.90
17986;DHT22;9118;48.122;11.546;2024-03-22T05:46:26;8.40;99.90
17986;DHT22;9118;48.122;11.546;2024-03-22T05:48:52;8.50;99.90
17986;DHT22;9118;48.122;11.546;2024-03-22T05:51:20;8.60;99.90
17986;DHT22;9118;48.122;11.546;2024-03-22T05:53:46;8.60;99.90
17986;DHT22;9118;48.122;11.546;2024-03-22T05:56:13;8.70;99.90
17986;DHT22;9118;48.122;11.546;2024-03-22T05:58:39;8.70;99.90
17986;DHT22;9118;48.122;11.546;2024-03-22T06:01:06;8.70;99.90
17986;DHT22;9118;48.122;11.546;2024-03-22T06:03:32;8.70;99.90
17986;DHT22;9118;48.122;11.546;2024-03-22T06:06:00;8.70;99.90
17986;DHT22;9118;48.122;11.546;2024-03-22T06:08:28;8.70;99.90
17986;DHT22;9118;48.122;11.546;2024-03-22T06:10:57;8.70;99.90
17986;DHT22;9118;48.122;11.546;2024-03-22T06:13:22;8.70;99.90
17986;DHT22;9118;48.122;11.546;2024-03-22T06:15:49;8.70;99.90
17986;DHT22;9118;48.122;11.546;2024-03-22T06:18:15;8.60;99.90
17986;DHT22;9118;48.122;11.546;2024-03-22T06:20:42;8.60;99.90
17986;DHT22;9118;48.122;11.546;2024-03-22T06:23:09;8.60;99.90
17986;DHT22;9118;48.122;11.546;2024-03-22T06:25:37;8.70;99.90
17986;DHT22;9118;48.122;11.546;2024-03-22T06:28:03;8.50;99.90
17986;DHT22;9118;48.122;11.546;2024-03-22T06:30:30;8.50;99.90
17986;DHT22;9118;48.122;11.546;2024-03-22T06:32:56;8.60;99.90
17986;DHT22;9118;48.122;11.546;2024-03-22T06:35:23;8.50;99.90
17986;DHT22;9118;48.122;11.546;2024-03-22T06:37:49;8.50;99.90
17986;DHT22;9118;48.122;11.546;2024-03-22T06:40:16;8.70;99.90
17986;DHT22;9118;48.122;11.546;2024-03-22T06:42:43;8.70;99.90
17986;DHT22;9118;48.122;11.546;2024-03-22T06:45:10;8.70;99.90
17986;DHT22;9118;48.122;11.546;2024-03-22T06:47:36;8.80;99.90
17986;DHT22;9118;48.122;11.546;2024-03-22T06:50:03;8.80;99.90
17986;DHT22;9118;48.122;11.546;2024-03-22T06:52:29;8.90;99.90
17986;DHT22;9118;48.122;11.546;2024-03-22T06:54:56;9.00;99.90
17986;DHT22;9118;48.122;11.546;2024-03-22T06:57:22;9.00;99.90
17986;DHT22;9118;48.122;11.546;2024-03-22T06:59:50;9.10;99.90
17986;DHT22;9118;48.122;11.546;2024-03-22T07:02:16;9.20;99.90
17986;DHT22;9118;48.122;11.546;2024-03-22T07:04:44;9.20;99.90
17986;DHT22;9118;48.122;11.546;2024-03-22T07:07:10;9.20;99.90
17986;DHT22;9118;48.122;11.546;2024-03-22T07:09:36;9.30;99.90
17986;DHT22;9118;48.122;11.546;2024-03-22T07:12:02;9.40;99.90
17986;DHT22;9118;48.122;11.546;2024-03-22T07:14:29;9.70;99.90
17986;DHT22;9118;48.122;11.546;2024-03-22T07:16:57;9.30;99.90
17986;DHT22;9118;48.122;11.546;2024-03-22T07:19:24;9.50;99.90
17986;DHT22;9118;48.122;11.546;2024-03-22T07:21:50;9.60;99.90
17986;DHT22;9118;48.122;11.546;2024-03-22T07:24:17;9.60;99.90
17986;DHT22;9118;48.122;11.546;2024-03-22T07:26:44;9.80;99.90
17986;DHT22;9118;48.122;11.546;2024-03-22T07:29:11;9.90;99.90
17986;DHT22;9118;48.122;11.546;2024-03-22T07:31:37;9.90;99.90
17986;DHT22;9118;48.122;11.546;2024-03-22T07:34:06;10.30;99.90
17986;DHT22;9118;48.122;11.546;2024-03-22T07:36:32;10.20;99.90
17986;DHT22;9118;48.122;11.546;2024-03-22T07:39:03;10.10;99.90
17986;DHT22;9118;48.122;11.546;2024-03-22T07:41:31;10.30;99.90
17986;DHT22;9118;48.122;11.546;2024-03-22T07:43:59;10.10;99.90
17986;DHT22;9118;48.122;11.546;2024-03-22T07:46:25;10.20;99.90
17986;DHT22;9118;48.122;11.546;2024-03-22T07:48:52;9.90;99.90
17986;DHT22;9118;48.122;11.546;2024-03-22T07:51:20;10.10;99.90
17986;DHT22;9118;48.122;11.546;2024-03-22T07:53:47;10.10;99.90
17986;DHT22;9118;48.122;11.546;2024-03-22T07:56:13;10.30;99.90
17986;DHT22;9118;48.122;11.546;2024-03-22T07:58:41;10.50;99.90
17986;DHT22;9118;48.122;11.546;2024-03-22T08:01:08;10.60;99.90
17986;DHT22;9118;48.122;11.546;2024-03-22T08:03:36;10.50;99.90
17986;DHT22;9118;48.122;11.546;2024-03-22T08:06:02;10.50;99.90
17986;DHT22;9118;48.122;11.546;2024-03-22T08:08:32;11.30;99.90
17986;DHT22;9118;48.122;11.546;2024-03-22T08:10:58;11.10;99.90
17986;DHT22;9118;48.122;11.546;2024-03-22T08:13:25;11.20;99.90
17986;DHT22;9118;48.122;11.546;2024-03-22T08:15:51;11.20;99.90
17986;DHT22;9118;48.122;11.546;2024-03-22T08:18:19;11.60;99.90
17986;DHT22;9118;48.122;11.546;2024-03-22T08:20:46;10.70;99.90
17986;DHT22;9118;48.122;11.546;2024-03-22T08:23:14;11.50;99.90
17986;DHT22;9118;48.122;11.546;2024-03-22T08:25:41;11.80;99.90
17986;DHT22;9118;48.122;11.546;2024-03-22T08:28:11;11.90;99.90
17986;DHT22;9118;48.122;11.546;2024-03-22T08:30:39;11.90;99.90
17986;DHT22;9118;48.122;11.546;2024-03-22T08:33:06;12.30;99.90
17986;DHT22;9118;48.122;11.546;2024-03-22T08:35:32;12.40;99.90
17986;DHT22;9118;48.122;11.546;2024-03-22T08:37:59;12.30;99.90
17986;DHT22;9118;48.122;11.546;2024-03-22T08:40:25;12.50;99.90
17986;DHT22;9118;48.122;11.546;2024-03-22T08:42:53;12.70;99.90
17986;DHT22;9118;48.122;11.546;2024-03-22T08:45:22;12.90;99.90
17986;DHT22;9118;48.122;11.546;2024-03-22T08:47:49;12.80;99.90
17986;DHT22;9118;48.122;11.546;2024-03-22T08:50:15;12.70;99.90
17986;DHT22;9118;48.122;11.546;2024-03-22T08:52:42;12.90;99.90
17986;DHT22;9118;48.122;11.546;2024-03-22T08:55:08;12.90;99.90
17986;DHT22;9118;48.122;11.546;2024-03-22T08:57:36;13.20;99.90
17986;DHT22;9118;48.122;11.546;2024-03-22T09:00:04;13.00;99.90
17986;DHT22;9118;48.122;11.546;2024-03-22T09:02:33;13.10;99.90
17986;DHT22;9118;48.122;11.546;2024-03-22T09:04:59;13.30;99.90
17986;DHT22;9118;48.122;11.546;2024-03-22T09:07:31;13.30;99.90
17986;DHT22;9118;48.122;11.546;2024-03-22T09:09:57;13.70;99.90
17986;DHT22;9118;48.122;11.546;2024-03-22T09:12:24;13.70;99.90
17986;DHT22;9118;48.122;11.546;2024-03-22T09:14:50;13.80;99.90
17986;DHT22;9118;48.122;11.546;2024-03-22T09:17:19;14.00;99.90
17986;DHT22;9118;48.122;11.546;2024-03-22T09:19:44;14.20;99.90
17986;DHT22;9118;48.122;11.546;2024-03-22T09:22:19;14.40;99.90
17986;DHT22;9118;48.122;11.546;2024-03-22T09:24:45;14.20;99.90
17986;DHT22;9118;48.122;11.546;2024-03-22T09:27:12;14.20;99.90
17986;DHT22;9118;48.122;11.546;2024-03-22T09:29:38;14.30;99.90
17986;DHT22;9118;48.122;11.546;2024-03-22T09:32:06;14.00;99.90
17986;DHT22;9118;48.122;11.546;2024-03-22T09:34:33;14.10;99.90
17986;DHT22;9118;48.122;11.546;2024-03-22T09:37:01;14.10;99.90
17986;DHT22;9118;48.122;11.546;2024-03-22T09:39:27;14.10;99.90
17986;DHT22;9118;48.122;11.546;2024-03-22T09:41:56;14.20;99.90
17986;DHT22;9118;48.122;11.546;2024-03-22T09:44:22;14.60;99.90
17986;DHT22;9118;48.122;11.546;2024-03-22T09:46:50;14.30;99.90
17986;DHT22;9118;48.122;11.546;2024-03-22T09:49:17;14.50;99.90
17986;DHT22;9118;48.122;11.546;2024-03-22T09:51:44;14.80;99.90
17986;DHT22;9118;48.122;11.546;2024-03-22T09:54:12;15.50;99.90
17986;DHT22;9118;48.122;11.546;2024-03-22T09:56:38;14.60;99.90
17986;DHT22;9118;48.122;11.546;2024-03-22T09:59:05;14.70;99.90
17986;DHT22;9118;48.122;11.546;2024-03-22T10:01:32;14.70;99.90
17986;DHT22;9118;48.122;11.546;2024-03-22T10:04:00;14.90;99.90
17986;DHT22;9118;48.122;11.546;2024-03-22T10:06:26;14.10;99.90
17986;DHT22;9118;48.122;11.546;2024-03-22T10:08:58;15.50;99.90
17986;DHT22;9118;48.122;11.546;2024-03-22T10:11:25;14.80;99.90
17986;DHT22;9118;48.122;11.546;2024-03-22T10:13:52;15.70;99.90
17986;DHT22;9118;48.122;11.546;2024-03-22T10:16:20;15.30;99.90
17986;DHT22;9118;48.122;11.546;2024-03-22T10:18:47;15.40;99.90
17986;DHT22;9118;48.122;11.546;2024-03-22T10:21:16;15.50;99.90
17986;DHT22;9118;48.122;11.546;2024-03-22T10:23:44;15.40;99.90
17986;DHT22;9118;48.122;11.546;2024-03-22T10:26:14;15.50;99.90
17986;DHT22;9118;48.122;11.546;2024-03-22T10:28:44;15.70;99.90
17986;DHT22;9118;48.122;11.546;2024-03-22T10:31:10;16.00;99.90
17986;DHT22;9118;48.122;11.546;2024-03-22T10:33:38;15.80;99.90
17986;DHT22;9118;48.122;11.546;2024-03-22T10:36:04;15.80;99.90
17986;DHT22;9118;48.122;11.546;2024-03-22T10:38:31;16.20;99.90
17986;DHT22;9118;48.122;11.546;2024-03-22T10:40:58;16.10;99.90
17986;DHT22;9118;48.122;11.546;2024-03-22T10:43:30;15.70;99.90
17986;DHT22;9118;48.122;11.546;2024-03-22T10:45:58;15.80;99.90
17986;DHT22;9118;48.122;11.546;2024-03-22T10:48:29;15.80;99.90
17986;DHT22;9118;48.122;11.546;2024-03-22T10:50:55;16.10;99.90
17986;DHT22;9118;48.122;11.546;2024-03-22T10:53:27;15.80;99.90
17986;DHT22;9118;48.122;11.546;2024-03-22T10:55:54;15.20;99.90
17986;DHT22;9118;48.122;11.546;2024-03-22T10:58:25;15.40;99.90
17986;DHT22;9118;48.122;11.546;2024-03-22T11:00:53;15.60;99.90
17986;DHT22;9118;48.122;11.546;2024-03-22T11:03:20;15.70;99.90
17986;DHT22;9118;48.122;11.546;2024-03-22T11:05:47;15.70;99.90
17986;DHT22;9118;48.122;11.546;2024-03-22T11:08:22;15.70;99.90
17986;DHT22;9118;48.122;11.546;2024-03-22T11:10:49;15.60;99.90
17986;DHT22;9118;48.122;11.546;2024-03-22T11:13:17;15.60;99.90
17986;DHT22;9118;48.122;11.546;2024-03-22T11:15:43;15.50;99.90
17986;DHT22;9118;48.122;11.546;2024-03-22T11:18:11;15.30;99.90
17986;DHT22;9118;48.122;11.546;2024-03-22T11:20:39;15.50;99.90
17986;DHT22;9118;48.122;11.546;2024-03-22T11:23:06;15.70;99.90
17986;DHT22;9118;48.122;11.546;2024-03-22T11:25:32;15.70;99.90
17986;DHT22;9118;48.122;11.546;2024-03-22T11:28:01;15.80;99.90
17986;DHT22;9118;48.122;11.546;2024-03-22T11:30:27;15.60;99.90
17986;DHT22;9118;48.122;11.546;2024-03-22T11:32:55;15.80;99.90
17986;DHT22;9118;48.122;11.546;2024-03-22T11:38:08;15.80;99.90
17986;DHT22;9118;48.122;11.546;2024-03-22T11:40:34;15.60;99.90
17986;DHT22;9118;48.122;11.546;2024-03-22T11:43:04;15.90;99.90
17986;DHT22;9118;48.122;11.546;2024-03-22T11:45:31;16.10;99.90
17986;DHT22;9118;48.122;11.546;2024-03-22T11:48:01;16.20;99.90
17986;DHT22;9118;48.122;11.546;2024-03-22T11:50:28;16.70;99.90
17986;DHT22;9118;48.122;11.546;2024-03-22T11:52:55;16.00;99.90
17986;DHT22;9118;48.122;11.546;2024-03-22T11:55:26;16.40;99.90
17986;DHT22;9118;48.122;11.546;2024-03-22T11:57:56;16.10;99.90
17986;DHT22;9118;48.122;11.546;2024-03-22T12:00:23;16.80;99.90
17986;DHT22;9118;48.122;11.546;2024-03-22T12:02:53;16.10;99.90
17986;DHT22;9118;48.122;11.546;2024-03-22T12:05:22;16.50;99.90
17986;DHT22;9118;48.122;11.546;2024-03-22T12:07:51;16.60;99.90
17986;DHT22;9118;48.122;11.546;2024-03-22T12:10:17;16.70;99.90
17986;DHT22;9118;48.122;11.546;2024-03-22T12:12:48;16.40;99.90
17986;DHT22;9118;48.122;11.546;2024-03-22T12:15:13;16.50;99.90
17986;DHT22;9118;48.122;11.546;2024-03-22T12:17:41;16.40;99.90
17986;DHT22;9118;48.122;11.546;2024-03-22T12:20:08;16.40;99.90
17986;DHT22;9118;48.122;11.546;2024-03-22T12:22:36;16.80;99.90
17986;DHT22;9118;48.122;11.546;2024-03-22T12:25:01;16.60;99.90
17986;DHT22;9118;48.122;11.546;2024-03-22T12:27:31;16.70;99.90
17986;DHT22;9118;48.122;11.546;2024-03-22T12:29:59;16.60;99.90
17986;DHT22;9118;48.122;11.546;2024-03-22T12:32:26;16.90;99.90
17986;DHT22;9118;48.122;11.546;2024-03-22T12:34:52;17.00;99.90
17986;DHT22;9118;48.122;11.546;2024-03-22T12:37:19;17.70;99.90
17986;DHT22;9118;48.122;11.546;2024-03-22T12:39:45;17.00;99.90
17986;DHT22;9118;48.122;11.546;2024-03-22T12:42:14;16.70;99.90
17986;DHT22;9118;48.122;11.546;2024-03-22T12:44:40;16.30;99.90
17986;DHT22;9118;48.122;11.546;2024-03-22T12:47:12;16.80;99.90
17986;DHT22;9118;48.122;11.546;2024-03-22T12:49:38;17.30;99.90
17986;DHT22;9118;48.122;11.546;2024-03-22T12:52:06;17.20;99.90
17986;DHT22;9118;48.122;11.546;2024-03-22T12:54:32;17.50;99.90
17986;DHT22;9118;48.122;11.546;2024-03-22T12:56:59;17.00;99.90
17986;DHT22;9118;48.122;11.546;2024-03-22T12:59:25;17.20;99.90
17986;DHT22;9118;48.122;11.546;2024-03-22T13:01:52;17.30;99.90
17986;DHT22;9118;48.122;11.546;2024-03-22T13:04:21;17.00;99.90
17986;DHT22;9118;48.122;11.546;2024-03-22T13:06:48;17.50;99.90
17986;DHT22;9118;48.122;11.546;2024-03-22T13:09:15;17.30;99.90
17986;DHT22;9118;48.122;11.546;2024-03-22T13:11:47;17.20;99.90
17986;DHT22;9118;48.122;11.546;2024-03-22T13:14:13;17.40;99.90
17986;DHT22;9118;48.122;11.546;2024-03-22T13:16:41;17.70;99.90
17986;DHT22;9118;48.122;11.546;2024-03-22T13:19:07;17.60;99.90
17986;DHT22;9118;48.122;11.546;2024-03-22T13:21:40;17.20;99.90
17986;DHT22;9118;48.122;11.546;2024-03-22T13:24:06;17.30;99.90
17986;DHT22;9118;48.122;11.546;2024-03-22T13:26:33;17.30;99.90
17986;DHT22;9118;48.122;11.546;2024-03-22T13:29:01;17.00;99.90
17986;DHT22;9118;48.122;11.546;2024-03-22T13:31:28;17.50;99.90
17986;DHT22;9118;48.122;11.546;2024-03-22T13:33:54;18.00;99.90
17986;DHT22;9118;48.122;11.546;2024-03-22T13:36:21;17.70;99.90
17986;DHT22;9118;48.122;11.546;2024-03-22T13:38:49;17.70;99.90
17986;DHT22;9118;48.122;11.546;2024-03-22T13:41:17;17.70;99.90
17986;DHT22;9118;48.122;11.546;2024-03-22T13:43:43;17.60;99.90
17986;DHT22;9118;48.122;11.546;2024-03-22T13:46:11;17.80;99.90
17986;DHT22;9118;48.122;11.546;2024-03-22T13:48:40;17.50;99.90
17986;DHT22;9118;48.122;11.546;2024-03-22T13:51:07;17.30;99.90
17986;DHT22;9118;48.122;11.546;2024-03-22T13:53:33;17.70;99.90
17986;DHT22;9118;48.122;11.546;2024-03-22T13:56:02;17.40;99.90
17986;DHT22;9118;48.122;11.546;2024-03-22T13:58:29;17.70;99.90
17986;DHT22;9118;48.122;11.546;2024-03-22T14:00:56;17.80;99.90
17986;DHT22;9118;48.122;11.546;2024-03-22T14:03:21;17.90;99.90
17986;DHT22;9118;48.122;11.546;2024-03-22T14:05:49;17.40;99.90
17986;DHT22;9118;48.122;11.546;2024-03-22T14:08:15;17.50;99.90
17986;DHT22;9118;48.122;11.546;2024-03-22T14:10:42;18.20;99.90
17986;DHT22;9118;48.122;11.546;2024-03-22T14:13:09;17.80;99.90
17986;DHT22;9118;48.122;11.546;2024-03-22T14:15:36;18.20;99.90
17986;DHT22;9118;48.122;11.546;2024-03-22T14:18:02;18.00;99.90
17986;DHT22;9118;48.122;11.546;2024-03-22T14:20:29;18.10;99.90
17986;DHT22;9118;48.122;11.546;2024-03-22T14:22:56;18.00;99.90
17986;DHT22;9118;48.122;11.546;2024-03-22T14:25:23;18.10;99.90
17986;DHT22;9118;48.122;11.546;2024-03-22T14:27:49;18.10;99.90
17986;DHT22;9118;48.122;11.546;2024-03-22T14:30:18;18.60;99.90
17986;DHT22;9118;48.122;11.546;2024-03-22T14:32:45;18.30;99.90
17986;DHT22;9118;48.122;11.546;2024-03-22T14:35:12;18.80;99.90
17986;DHT22;9118;48.122;11.546;2024-03-22T14:37:38;19.60;99.90
17986;DHT22;9118;48.122;11.546;2024-03-22T14:40:06;18.70;99.90
17986;DHT22;9118;48.122;11.546;2024-03-22T14:42:35;18.60;99.90
17986;DHT22;9118;48.122;11.546;2024-03-22T14:45:03;18.40;99.90
17986;DHT22;9118;48.122;11.546;2024-03-22T14:47:36;18.30;99.90
17986;DHT22;9118;48.122;11.546;2024-03-22T14:50:02;18.80;99.90
17986;DHT22;9118;48.122;11.546;2024-03-22T14:52:29;18.70;99.90
17986;DHT22;9118;48.122;11.546;2024-03-22T14:54:55;19.00;99.90
17986;DHT22;9118;48.122;11.546;2024-03-22T14:57:22;19.80;99.90
17986;DHT22;9118;48.122;11.546;2024-03-22T14:59:48;19.90;99.90
17986;DHT22;9118;48.122;11.546;2024-03-22T15:02:18;19.80;99.90
17986;DHT22;9118;48.122;11.546;2024-03-22T15:04:46;19.60;99.90
17986;DHT22;9118;48.122;11.546;2024-03-22T15:07:13;20.00;99.90
17986;DHT22;9118;48.122;11.546;2024-03-22T15:09:40;19.30;99.90
17986;DHT22;9118;48.122;11.546;2024-03-22T15:12:07;19.40;99.90
17986;DHT22;9118;48.122;11.546;2024-03-22T15:14:34;19.60;99.90
17986;DHT22;9118;48.122;11.546;2024-03-22T15:17:03;19.70;99.90
17986;DHT22;9118;48.122;11.546;2024-03-22T15:19:30;19.60;99.90
17986;DHT22;9118;48.122;11.546;2024-03-22T15:21:58;19.40;99.90
17986;DHT22;9118;48.122;11.546;2024-03-22T15:24:24;19.50;99.90
17986;DHT22;9118;48.122;11.546;2024-03-22T15:26:52;19.60;99.90
17986;DHT22;9118;48.122;11.546;2024-03-22T15:29:18;20.20;99.90
17986;DHT22;9118;48.122;11.546;2024-03-22T15:31:45;20.80;99.90
17986;DHT22;9118;48.122;11.546;2024-03-22T15:34:11;23.40;99.90
17986;DHT22;9118;48.122;11.546;2024-03-22T15:36:38;21.90;99.90
17986;DHT22;9118;48.122;11.546;2024-03-22T15:39:06;21.30;99.90